createdAt,value
2023-10-03T00:00:28.111Z,18.22
2023-10-03T00:01:50.298Z,18.21
2023-10-03T00:02:56.387Z,18.20
2023-10-03T00:04:00.331Z,18.21
2023-10-03T00:05:02.645Z,18.20
2023-10-03T00:06:05.678Z,18.20
2023-10-03T00:07:07.260Z,18.20
2023-10-03T00:08:09.117Z,18.20
2023-10-03T00:09:11.264Z,18.19
2023-10-03T00:10:14.334Z,18.18
2023-10-03T00:11:19.624Z,18.19
2023-10-03T00:12:21.305Z,18.18
2023-10-03T00:13:25.322Z,18.17
2023-10-03T00:14:27.301Z,18.18
2023-10-03T00:15:29.159Z,18.17
2023-10-03T00:16:31.736Z,18.17
2023-10-03T00:17:33.436Z,18.16
2023-10-03T00:18:35.204Z,18.15
2023-10-03T00:19:36.778Z,18.12
2023-10-03T00:20:39.378Z,18.11
2023-10-03T00:21:41.075Z,18.11
2023-10-03T00:22:45.148Z,18.11
2023-10-03T00:23:46.913Z,18.12
2023-10-03T00:24:48.678Z,18.11
2023-10-03T00:25:50.986Z,18.12
2023-10-03T00:26:54.435Z,18.12
2023-10-03T00:28:00.721Z,18.11
2023-10-03T00:29:04.287Z,18.10
2023-10-03T00:30:07.646Z,18.10
2023-10-03T00:31:15.878Z,18.09
2023-10-03T00:32:17.418Z,18.10
2023-10-03T00:33:22.069Z,18.09
2023-10-03T00:34:23.960Z,18.08
2023-10-03T00:35:28.929Z,18.07
2023-10-03T00:36:32.586Z,18.06
2023-10-03T00:37:35.247Z,18.05
2023-10-03T00:38:36.843Z,18.04
2023-10-03T00:39:38.666Z,18.05
2023-10-03T00:40:43.765Z,18.04
2023-10-03T00:41:45.914Z,18.03
2023-10-03T00:42:49.554Z,18.03
2023-10-03T00:44:04.524Z,18.02
2023-10-03T00:45:09.233Z,18.01
2023-10-03T00:46:10.974Z,18.01
2023-10-03T00:47:13.390Z,18.00
2023-10-03T00:48:16.122Z,18.01
2023-10-03T00:49:17.892Z,18.00
2023-10-03T00:50:20.873Z,18.00
2023-10-03T00:51:27.272Z,17.99
2023-10-03T00:52:29.665Z,17.98
2023-10-03T00:53:33.276Z,17.98
2023-10-03T00:54:34.969Z,17.98
2023-10-03T00:55:43.723Z,17.99
2023-10-03T00:56:48.108Z,17.98
2023-10-03T00:57:50.721Z,17.97
2023-10-03T00:58:52.607Z,17.97
2023-10-03T00:59:57.226Z,17.98
2023-10-03T01:00:59.743Z,17.97
2023-10-03T01:02:07.164Z,17.97
2023-10-03T01:03:29.367Z,17.97
2023-10-03T01:04:31.982Z,17.93
2023-10-03T01:05:34.280Z,17.92
2023-10-03T01:06:35.985Z,17.91
2023-10-03T01:07:38.830Z,17.91
2023-10-03T01:08:43.191Z,17.90
2023-10-03T01:09:45.125Z,17.89
2023-10-03T01:10:46.870Z,17.88
2023-10-03T01:11:52.502Z,17.87
2023-10-03T01:12:55.077Z,17.84
2023-10-03T01:14:00.482Z,17.83
2023-10-03T01:15:06.320Z,17.82
2023-10-03T01:16:08.859Z,17.80
2023-10-03T01:17:13.975Z,17.79
2023-10-03T01:18:18.802Z,17.78
2023-10-03T01:19:30.737Z,17.78
2023-10-03T01:20:41.013Z,17.75
2023-10-03T01:21:42.599Z,17.71
2023-10-03T01:22:50.187Z,17.68
2023-10-03T01:23:52.381Z,17.66
2023-10-03T01:24:56.070Z,17.65
2023-10-03T01:25:58.411Z,17.64
2023-10-03T01:27:00.087Z,17.61
2023-10-03T01:28:01.873Z,17.60
2023-10-03T01:29:04.009Z,17.58
2023-10-03T01:30:09.486Z,17.57
2023-10-03T01:31:59.777Z,17.54
2023-10-03T01:33:02.856Z,17.51
2023-10-03T01:34:06.035Z,17.45
2023-10-03T01:35:12.185Z,17.41
2023-10-03T01:36:13.749Z,17.39
2023-10-03T01:37:15.416Z,17.38
2023-10-03T01:38:17.084Z,17.37
2023-10-03T01:39:19.662Z,17.35
2023-10-03T01:40:21.480Z,17.34
2023-10-03T01:41:23.067Z,17.33
2023-10-03T01:42:24.661Z,17.32
2023-10-03T01:43:26.788Z,17.32
2023-10-03T01:44:28.650Z,17.31
2023-10-03T01:45:33.842Z,17.30
2023-10-03T01:46:35.624Z,17.28
2023-10-03T01:47:40.113Z,17.26
2023-10-03T01:48:42.237Z,17.25
2023-10-03T01:49:44.655Z,17.24
2023-10-03T01:50:46.265Z,17.23
2023-10-03T01:51:47.769Z,17.22
2023-10-03T01:52:49.998Z,17.20
2023-10-03T01:53:52.025Z,17.19
2023-10-03T01:54:53.792Z,17.19
2023-10-03T01:55:55.366Z,17.19
2023-10-03T01:56:57.178Z,17.19
2023-10-03T01:57:59.378Z,17.20
2023-10-03T01:59:02.124Z,17.21
2023-10-03T02:00:11.707Z,17.22
2023-10-03T02:01:14.475Z,17.23
2023-10-03T02:02:16.293Z,17.24
2023-10-03T02:03:19.708Z,17.24
2023-10-03T02:04:21.899Z,17.25
2023-10-03T02:05:25.631Z,17.25
2023-10-03T02:06:27.511Z,17.27
2023-10-03T02:07:29.014Z,17.27
2023-10-03T02:08:30.510Z,17.28
2023-10-03T02:09:32.302Z,17.29
2023-10-03T02:10:35.306Z,17.31
2023-10-03T02:11:38.028Z,17.33
2023-10-03T02:12:51.906Z,17.33
2023-10-03T02:13:53.541Z,17.35
2023-10-03T02:14:55.483Z,17.35
2023-10-03T02:15:59.027Z,17.37
2023-10-03T02:17:00.682Z,17.37
2023-10-03T02:18:05.701Z,17.38
2023-10-03T02:19:07.282Z,17.39
2023-10-03T02:20:14.046Z,17.40
2023-10-03T02:21:18.649Z,17.41
2023-10-03T02:22:20.234Z,17.43
2023-10-03T02:23:26.095Z,17.43
2023-10-03T02:24:27.864Z,17.44
2023-10-03T02:25:30.774Z,17.44
2023-10-03T02:26:32.978Z,17.45
2023-10-03T02:27:34.610Z,17.46
2023-10-03T02:28:37.552Z,17.47
2023-10-03T02:29:39.352Z,17.47
2023-10-03T02:30:41.296Z,17.48
2023-10-03T02:31:44.256Z,17.49
2023-10-03T02:32:45.976Z,17.50
2023-10-03T02:33:50.076Z,17.50
2023-10-03T02:34:51.669Z,17.50
2023-10-03T02:35:54.547Z,17.50
2023-10-03T02:36:56.666Z,17.51
2023-10-03T02:37:59.206Z,17.51
2023-10-03T02:39:01.252Z,17.51
2023-10-03T02:40:07.724Z,17.52
2023-10-03T02:41:12.658Z,17.52
2023-10-03T02:42:15.689Z,17.52
2023-10-03T02:43:17.177Z,17.52
2023-10-03T02:44:18.831Z,17.53
2023-10-03T02:45:23.961Z,17.53
2023-10-03T02:46:27.586Z,17.52
2023-10-03T02:47:30.327Z,17.52
2023-10-03T02:48:32.134Z,17.52
2023-10-03T02:49:33.723Z,17.53
2023-10-03T02:50:35.626Z,17.54
2023-10-03T02:51:37.341Z,17.52
2023-10-03T02:52:40.121Z,17.52
2023-10-03T02:53:41.924Z,17.52
2023-10-03T02:54:43.969Z,17.51
2023-10-03T02:55:47.348Z,17.51
2023-10-03T02:56:49.487Z,17.51
2023-10-03T02:57:51.523Z,17.50
2023-10-03T02:58:53.431Z,17.50
2023-10-03T02:59:55.114Z,17.49
2023-10-03T03:00:57.072Z,17.49
2023-10-03T03:01:59.937Z,17.49
2023-10-03T03:03:06.962Z,17.49
2023-10-03T03:04:12.617Z,17.48
2023-10-03T03:05:18.585Z,17.47
2023-10-03T03:06:20.161Z,17.47
2023-10-03T03:07:25.229Z,17.46
2023-10-03T03:08:29.414Z,17.46
2023-10-03T03:09:35.526Z,17.46
2023-10-03T03:10:38.984Z,17.46
2023-10-03T03:11:50.728Z,17.46
2023-10-03T03:12:52.449Z,17.45
2023-10-03T03:13:54.558Z,17.45
2023-10-03T03:14:56.200Z,17.44
2023-10-03T03:16:02.052Z,17.44
2023-10-03T03:17:14.037Z,17.44
2023-10-03T03:18:15.934Z,17.43
2023-10-03T03:19:18.087Z,17.42
2023-10-03T03:20:28.409Z,17.41
2023-10-03T03:21:33.434Z,17.39
2023-10-03T03:22:34.925Z,17.39
2023-10-03T03:23:39.086Z,17.38
2023-10-03T03:24:40.732Z,17.37
2023-10-03T03:25:43.482Z,17.37
2023-10-03T03:26:48.409Z,17.37
2023-10-03T03:27:50.146Z,17.36
2023-10-03T03:28:52.130Z,17.35
2023-10-03T03:30:12.474Z,17.36
2023-10-03T03:31:25.547Z,17.35
2023-10-03T03:32:27.980Z,17.32
2023-10-03T03:33:31.950Z,17.32
2023-10-03T03:34:33.866Z,17.30
2023-10-03T03:35:38.888Z,17.32
2023-10-03T03:36:41.026Z,17.32
2023-10-03T03:37:43.088Z,17.32
2023-10-03T03:38:49.322Z,17.32
2023-10-03T03:39:54.271Z,17.31
2023-10-03T03:40:59.911Z,17.28
2023-10-03T03:42:01.844Z,17.26
2023-10-03T03:43:05.847Z,17.24
2023-10-03T03:44:13.544Z,17.22
2023-10-03T03:45:18.645Z,17.21
2023-10-03T03:46:20.579Z,17.21
2023-10-03T03:47:22.142Z,17.21
2023-10-03T03:48:23.763Z,17.21
2023-10-03T03:49:26.596Z,17.19
2023-10-03T03:50:32.762Z,17.16
2023-10-03T03:51:36.997Z,17.15
2023-10-03T03:52:42.356Z,17.13
2023-10-03T03:53:44.583Z,17.11
2023-10-03T03:54:46.530Z,17.08
2023-10-03T03:55:50.225Z,17.04
2023-10-03T03:56:51.977Z,17.02
2023-10-03T03:57:53.789Z,17.01
2023-10-03T03:58:55.341Z,17.02
2023-10-03T03:59:57.349Z,17.01
2023-10-03T04:01:01.571Z,17.00
2023-10-03T04:02:03.989Z,17.00
2023-10-03T04:03:09.674Z,16.97
2023-10-03T04:04:12.948Z,16.93
2023-10-03T04:05:18.641Z,16.92
2023-10-03T04:06:20.695Z,16.91
2023-10-03T04:07:22.630Z,16.90
2023-10-03T04:08:24.383Z,16.88
2023-10-03T04:09:25.898Z,16.88
2023-10-03T04:10:27.773Z,16.87
2023-10-03T04:11:29.587Z,16.85
2023-10-03T04:12:31.779Z,16.84
2023-10-03T04:13:39.029Z,16.83
2023-10-03T04:14:41.050Z,16.81
2023-10-03T04:15:46.095Z,16.78
2023-10-03T04:16:51.920Z,16.73
2023-10-03T04:17:54.160Z,16.68
2023-10-03T04:18:55.962Z,16.66
2023-10-03T04:19:57.425Z,16.64
2023-10-03T04:20:58.976Z,16.63
2023-10-03T04:22:00.935Z,16.61
2023-10-03T04:23:07.764Z,16.58
2023-10-03T04:24:11.470Z,16.55
2023-10-03T04:26:34.110Z,16.51
2023-10-03T04:27:36.332Z,16.49
2023-10-03T04:28:41.432Z,16.47
2023-10-03T04:29:42.926Z,16.46
2023-10-03T04:30:46.268Z,16.43
2023-10-03T04:31:48.554Z,16.41
2023-10-03T04:32:51.084Z,16.39
2023-10-03T04:33:53.022Z,16.36
2023-10-03T04:34:54.735Z,16.33
2023-10-03T04:35:57.907Z,16.32
2023-10-03T04:36:59.587Z,16.30
2023-10-03T04:38:01.336Z,16.28
2023-10-03T04:39:04.884Z,16.27
2023-10-03T04:40:07.701Z,16.26
2023-10-03T04:41:10.474Z,16.25
2023-10-03T04:42:15.193Z,16.24
2023-10-03T04:43:17.657Z,16.23
2023-10-03T04:44:19.518Z,16.21
2023-10-03T04:45:21.102Z,16.19
2023-10-03T04:46:22.598Z,16.17
2023-10-03T04:47:28.104Z,16.16
2023-10-03T04:48:30.368Z,16.15
2023-10-03T04:49:32.289Z,16.13
2023-10-03T04:50:36.373Z,16.12
2023-10-03T04:51:38.102Z,16.10
2023-10-03T04:52:41.706Z,16.08
2023-10-03T04:53:43.368Z,16.06
2023-10-03T04:54:45.081Z,16.05
2023-10-03T04:55:49.523Z,16.05
2023-10-03T04:56:51.226Z,16.04
2023-10-03T04:57:54.224Z,16.01
2023-10-03T04:58:56.025Z,15.98
2023-10-03T04:59:59.667Z,15.97
2023-10-03T05:01:01.583Z,15.96
2023-10-03T05:02:03.684Z,15.96
2023-10-03T05:03:05.452Z,15.94
2023-10-03T05:04:07.373Z,15.94
2023-10-03T05:05:10.709Z,15.94
2023-10-03T05:06:12.321Z,15.93
2023-10-03T05:07:14.008Z,15.92
2023-10-03T05:08:16.014Z,15.90
2023-10-03T05:09:18.392Z,15.90
2023-10-03T05:10:21.236Z,15.92
2023-10-03T05:11:23.325Z,15.93
2023-10-03T05:12:25.094Z,15.92
2023-10-03T05:13:26.608Z,15.92
2023-10-03T05:14:28.442Z,15.91
2023-10-03T05:15:30.572Z,15.91
2023-10-03T05:16:32.054Z,15.90
2023-10-03T05:17:35.364Z,15.90
2023-10-03T05:18:37.580Z,15.91
2023-10-03T05:19:39.922Z,15.93
2023-10-03T05:20:42.992Z,15.93
2023-10-03T05:21:45.547Z,15.93
2023-10-03T05:22:48.073Z,15.90
2023-10-03T05:23:49.814Z,15.91
2023-10-03T05:24:51.813Z,15.93
2023-10-03T05:25:53.573Z,15.94
2023-10-03T05:26:56.376Z,15.95
2023-10-03T05:27:59.568Z,15.95
2023-10-03T05:29:01.397Z,15.95
2023-10-03T05:30:05.994Z,15.96
2023-10-03T05:31:13.422Z,15.99
2023-10-03T05:32:17.870Z,15.99
2023-10-03T05:33:20.973Z,16.00
2023-10-03T05:34:22.793Z,16.01
2023-10-03T05:35:25.788Z,16.02
2023-10-03T05:36:27.768Z,16.02
2023-10-03T05:37:29.333Z,16.01
2023-10-03T05:38:30.830Z,16.00
2023-10-03T05:39:32.459Z,16.01
2023-10-03T05:40:34.367Z,16.02
2023-10-03T05:41:36.115Z,16.03
2023-10-03T05:42:41.770Z,16.04
2023-10-03T05:43:44.170Z,16.05
2023-10-03T05:44:46.938Z,16.06
2023-10-03T05:45:50.371Z,16.07
2023-10-03T05:46:58.188Z,16.10
2023-10-03T05:48:00.365Z,16.10
2023-10-03T05:49:03.251Z,16.12
2023-10-03T05:50:05.447Z,16.13
2023-10-03T06:33:26.481Z,16.86
2023-10-03T06:34:29.885Z,16.85
2023-10-03T06:35:33.516Z,16.89
2023-10-03T06:36:36.476Z,16.95
2023-10-03T06:37:39.756Z,17.02
2023-10-03T06:38:43.063Z,17.07
2023-10-03T06:39:46.456Z,17.12
2023-10-03T06:40:49.527Z,17.15
2023-10-03T06:41:56.811Z,17.20
2023-10-03T06:43:00.184Z,17.24
2023-10-03T06:44:03.685Z,17.28
2023-10-03T06:45:11.334Z,17.31
2023-10-03T06:46:17.203Z,17.36
2023-10-03T06:47:21.860Z,17.41
2023-10-03T06:48:25.710Z,17.46
2023-10-03T06:49:30.094Z,17.51
2023-10-03T06:50:33.299Z,17.54
2023-10-03T06:51:36.389Z,17.57
2023-10-03T06:52:39.427Z,17.60
2023-10-03T06:53:48.389Z,17.66
2023-10-03T06:54:51.522Z,17.70
2023-10-03T06:55:58.239Z,17.76
2023-10-03T06:57:01.206Z,17.86
2023-10-03T06:58:04.700Z,17.94
2023-10-03T06:59:12.259Z,18.00
2023-10-03T07:00:17.499Z,18.07
2023-10-03T07:01:20.841Z,18.14
2023-10-03T07:02:23.736Z,18.21
2023-10-03T07:03:26.844Z,18.27
2023-10-03T07:04:31.339Z,18.33
2023-10-03T07:05:36.310Z,18.37
2023-10-03T07:06:39.839Z,18.42
2023-10-03T07:07:42.995Z,18.47
2023-10-03T07:08:46.297Z,18.51
2023-10-03T07:09:50.307Z,18.54
2023-10-03T07:10:53.631Z,18.59
2023-10-03T07:11:57.231Z,18.64
2023-10-03T07:13:02.430Z,18.68
2023-10-03T07:14:05.460Z,18.73
2023-10-03T07:15:15.295Z,18.79
2023-10-03T07:16:18.525Z,18.87
2023-10-03T07:17:21.688Z,18.93
2023-10-03T07:18:24.899Z,19.00
2023-10-03T07:19:27.933Z,19.05
2023-10-03T07:20:31.162Z,19.10
2023-10-03T07:21:35.896Z,19.14
2023-10-03T07:22:39.813Z,19.17
2023-10-03T07:23:45.415Z,19.21
2023-10-03T07:24:48.835Z,19.27
2023-10-03T07:25:52.770Z,19.31
2023-10-03T07:26:56.008Z,19.32
2023-10-03T07:27:59.910Z,19.36
2023-10-03T07:29:04.248Z,19.39
2023-10-03T07:30:08.052Z,19.42
2023-10-03T07:31:14.514Z,19.47
2023-10-03T07:32:17.963Z,19.50
2023-10-03T07:33:23.950Z,19.53
2023-10-03T07:34:27.133Z,19.57
2023-10-03T07:35:30.767Z,19.64
2023-10-03T07:36:34.479Z,19.71
2023-10-03T07:37:37.911Z,19.77
2023-10-03T07:38:40.924Z,19.80
2023-10-03T07:39:43.986Z,19.84
2023-10-03T07:40:47.311Z,19.87
2023-10-03T07:41:52.514Z,19.90
2023-10-03T07:42:55.853Z,19.92
2023-10-03T07:43:58.965Z,19.92
2023-10-03T07:45:02.164Z,19.93
2023-10-03T07:46:05.293Z,19.96
2023-10-03T07:47:08.643Z,19.98
2023-10-03T07:48:12.048Z,20.00
2023-10-03T07:49:15.285Z,20.05
2023-10-03T07:50:19.547Z,20.10
2023-10-03T07:51:27.873Z,20.13
2023-10-03T07:52:31.304Z,20.15
2023-10-03T07:53:38.113Z,20.18
2023-10-03T07:54:43.248Z,20.22
2023-10-03T07:55:46.172Z,20.27
2023-10-03T07:56:49.994Z,20.31
2023-10-03T07:57:56.139Z,20.35
2023-10-03T07:59:04.252Z,20.39
2023-10-03T08:00:11.164Z,20.45
2023-10-03T08:01:14.954Z,20.51
2023-10-03T08:02:18.245Z,20.56
2023-10-03T08:03:21.282Z,20.61
2023-10-03T08:04:25.823Z,20.64
2023-10-03T08:05:29.391Z,20.68
2023-10-03T08:06:34.668Z,20.73
2023-10-03T08:07:39.252Z,20.79
2023-10-03T08:08:42.718Z,20.86
2023-10-03T08:09:48.297Z,20.94
2023-10-03T08:10:51.437Z,21.02
2023-10-03T08:11:54.426Z,21.09
2023-10-03T08:12:59.286Z,21.18
2023-10-03T08:14:15.158Z,21.27
2023-10-03T08:15:18.788Z,21.37
2023-10-03T08:16:23.451Z,21.44
2023-10-03T08:17:27.565Z,21.52
2023-10-03T08:18:37.318Z,21.60
2023-10-03T08:19:41.855Z,21.68
2023-10-03T08:20:47.073Z,21.76
2023-10-03T08:21:51.037Z,21.84
2023-10-03T08:22:54.485Z,21.92
2023-10-03T08:23:58.865Z,22.00
2023-10-03T08:25:07.092Z,22.07
2023-10-03T08:26:10.288Z,22.12
2023-10-03T08:27:20.709Z,22.14
2023-10-03T08:28:23.655Z,22.12
2023-10-03T08:29:27.292Z,22.10
2023-10-03T08:30:30.629Z,22.09
2023-10-03T08:31:34.055Z,22.08
2023-10-03T08:32:41.391Z,22.08
2023-10-03T08:33:45.359Z,22.10
2023-10-03T08:34:48.637Z,22.11
2023-10-03T08:35:51.600Z,22.13
2023-10-03T08:36:55.743Z,22.18
2023-10-03T08:37:58.770Z,22.22
2023-10-03T08:39:14.368Z,22.26
2023-10-03T08:40:24.277Z,22.30
2023-10-03T08:41:36.502Z,22.33
2023-10-03T08:42:45.179Z,22.34
2023-10-03T08:43:55.758Z,22.37
2023-10-03T08:45:17.903Z,22.40
2023-10-03T08:46:29.591Z,22.46
2023-10-03T08:47:35.298Z,22.52
2023-10-03T08:48:44.743Z,22.57
2023-10-03T08:49:50.101Z,22.64
2023-10-03T08:50:58.108Z,22.69
2023-10-03T08:52:05.375Z,22.75
2023-10-03T08:53:28.079Z,22.81
2023-10-03T08:54:37.969Z,22.87
2023-10-03T08:55:44.544Z,22.92
2023-10-03T08:56:48.232Z,22.96
2023-10-03T08:57:51.506Z,23.00
2023-10-03T08:58:54.568Z,23.05
2023-10-03T08:59:57.701Z,23.09
2023-10-03T09:01:00.932Z,23.12
2023-10-03T09:02:15.377Z,23.15
2023-10-03T09:03:20.097Z,23.17
2023-10-03T09:04:24.379Z,23.19
2023-10-03T09:05:27.705Z,23.20
2023-10-03T09:06:30.978Z,23.23
2023-10-03T09:07:47.442Z,23.27
2023-10-03T09:08:52.617Z,23.31
2023-10-03T09:10:11.590Z,23.32
2023-10-03T09:11:15.323Z,23.34
2023-10-03T09:12:21.905Z,23.34
2023-10-03T09:13:27.119Z,23.35
2023-10-03T09:14:30.248Z,23.37
2023-10-03T09:15:39.143Z,23.40
2023-10-03T09:16:43.044Z,23.41
2023-10-03T09:17:51.133Z,23.43
2023-10-03T09:18:58.225Z,23.44
2023-10-03T09:20:05.595Z,23.47
2023-10-03T09:21:26.609Z,23.48
2023-10-03T09:22:34.400Z,23.49
2023-10-03T09:24:00.836Z,23.49
2023-10-03T09:25:04.173Z,23.47
2023-10-03T09:26:10.190Z,23.45
2023-10-03T09:27:18.947Z,23.42
2023-10-03T09:28:29.122Z,23.39
2023-10-03T09:29:33.165Z,23.36
2023-10-03T09:30:39.241Z,23.30
2023-10-03T09:31:42.903Z,23.26
2023-10-03T09:32:49.642Z,23.23
2023-10-03T09:33:53.173Z,23.21
2023-10-03T09:35:01.743Z,23.20
2023-10-03T09:36:05.896Z,23.20
2023-10-03T09:37:09.146Z,23.19
2023-10-03T09:38:18.823Z,23.19
2023-10-03T09:39:24.865Z,23.20
2023-10-03T09:40:28.882Z,23.21
2023-10-03T09:41:32.963Z,23.21
2023-10-03T09:42:41.114Z,23.23
2023-10-03T09:43:57.071Z,23.25
2023-10-03T09:45:00.920Z,23.27
2023-10-03T09:46:05.837Z,23.29
2023-10-03T09:47:09.561Z,23.31
2023-10-03T09:48:14.076Z,23.33
2023-10-03T09:49:17.180Z,23.36
2023-10-03T09:50:20.464Z,23.39
2023-10-03T09:51:47.342Z,23.42
2023-10-03T09:52:51.404Z,23.45
2023-10-03T09:53:58.223Z,23.47
2023-10-03T09:55:18.554Z,23.50
2023-10-03T09:56:21.896Z,23.53
2023-10-03T09:57:25.494Z,23.56
2023-10-03T09:58:34.815Z,23.60
2023-10-03T09:59:37.832Z,23.64
2023-10-03T10:00:54.056Z,23.69
2023-10-03T10:01:58.221Z,23.75
2023-10-03T10:03:05.783Z,23.78
2023-10-03T10:04:10.632Z,23.83
2023-10-03T10:05:23.441Z,23.86
2023-10-03T10:06:51.496Z,23.89
2023-10-03T10:08:10.029Z,23.93
2023-10-03T10:09:29.059Z,23.97
2023-10-03T10:10:34.504Z,23.99
2023-10-03T10:12:13.565Z,24.02
2023-10-03T10:13:22.985Z,24.05
2023-10-03T10:14:29.645Z,24.06
2023-10-03T10:15:32.932Z,24.07
2023-10-03T10:16:36.607Z,24.09
2023-10-03T10:17:53.665Z,24.09
2023-10-03T10:19:01.347Z,24.10
2023-10-03T10:20:14.098Z,24.12
2023-10-03T10:21:27.648Z,24.14
2023-10-03T10:22:59.472Z,24.17
2023-10-03T10:24:18.057Z,24.20
2023-10-03T10:25:29.128Z,24.22
2023-10-03T10:26:32.838Z,24.24
2023-10-03T10:27:36.819Z,24.27
2023-10-03T10:28:43.751Z,24.29
2023-10-03T10:29:59.979Z,24.31
2023-10-03T10:31:17.763Z,24.33
2023-10-03T10:32:21.017Z,24.38
2023-10-03T10:33:24.769Z,24.41
2023-10-03T10:34:31.086Z,24.44
2023-10-03T10:36:11.654Z,24.46
2023-10-03T10:37:19.791Z,24.47
2023-10-03T10:38:42.835Z,24.48
2023-10-03T10:39:55.185Z,24.49
2023-10-03T10:41:13.418Z,24.52
2023-10-03T10:42:17.351Z,24.52
2023-10-03T10:43:21.758Z,24.54
2023-10-03T10:44:24.704Z,24.56
2023-10-03T10:45:29.023Z,24.59
2023-10-03T10:46:48.175Z,24.61
2023-10-03T10:47:56.522Z,24.62
2023-10-03T10:48:59.598Z,24.62
2023-10-03T10:50:20.357Z,24.63
2023-10-03T10:51:25.115Z,24.64
2023-10-03T10:52:33.062Z,24.65
2023-10-03T10:53:46.162Z,24.66
2023-10-03T10:54:49.237Z,24.69
2023-10-03T10:55:52.308Z,24.69
2023-10-03T10:57:05.303Z,24.70
2023-10-03T10:58:14.250Z,24.70
2023-10-03T10:59:17.783Z,24.71
2023-10-03T11:00:24.130Z,24.73
2023-10-03T11:01:27.978Z,24.74
2023-10-03T11:02:36.437Z,24.76
2023-10-03T11:03:39.861Z,24.77
2023-10-03T11:04:44.449Z,24.78
2023-10-03T11:05:49.420Z,24.79
2023-10-03T11:06:53.687Z,24.81
2023-10-03T11:07:58.566Z,24.82
2023-10-03T11:09:02.457Z,24.83
2023-10-03T11:10:31.926Z,24.85
2023-10-03T11:11:37.410Z,24.85
2023-10-03T11:12:40.463Z,24.86
2023-10-03T11:14:01.441Z,24.87
2023-10-03T11:15:06.791Z,24.89
2023-10-03T11:16:09.961Z,24.91
2023-10-03T11:17:20.833Z,24.94
2023-10-03T11:18:30.385Z,24.98
2023-10-03T11:19:33.585Z,25.01
2023-10-03T11:20:37.574Z,25.06
2023-10-03T11:21:42.068Z,25.14
2023-10-03T11:22:48.537Z,25.26
2023-10-03T11:24:16.248Z,25.41
2023-10-03T11:25:20.500Z,25.58
2023-10-03T11:26:23.700Z,25.64
2023-10-03T11:27:29.444Z,25.68
2023-10-03T11:28:46.508Z,25.71
2023-10-03T11:29:50.275Z,25.75
2023-10-03T11:31:05.854Z,25.77
2023-10-03T11:32:27.215Z,25.79
2023-10-03T11:33:45.792Z,25.82
2023-10-03T11:34:53.792Z,25.87
2023-10-03T11:35:56.698Z,25.90
2023-10-03T11:37:00.191Z,25.93
2023-10-03T11:38:09.055Z,25.98
2023-10-03T11:39:19.354Z,26.01
2023-10-03T11:40:22.619Z,26.03
2023-10-03T11:41:32.924Z,26.02
2023-10-03T11:42:48.888Z,26.02
2023-10-03T11:43:51.849Z,26.03
2023-10-03T11:44:59.957Z,26.01
2023-10-03T11:46:03.469Z,26.02
2023-10-03T11:47:06.641Z,26.02
2023-10-03T11:48:19.889Z,26.03
2023-10-03T11:49:23.214Z,26.04
2023-10-03T11:50:26.971Z,26.08
2023-10-03T11:51:32.988Z,26.11
2023-10-03T11:52:36.123Z,26.15
2023-10-03T11:53:39.501Z,26.18
2023-10-03T11:54:43.149Z,26.20
2023-10-03T11:55:46.358Z,26.21
2023-10-03T11:56:49.669Z,26.23
2023-10-03T11:57:52.929Z,26.24
2023-10-03T11:58:56.008Z,26.27
2023-10-03T12:00:03.002Z,26.30
2023-10-03T12:01:10.727Z,26.33
2023-10-03T12:02:13.615Z,26.33
2023-10-03T12:03:16.771Z,26.34
2023-10-03T12:04:20.296Z,26.34
2023-10-03T12:05:25.305Z,26.34
2023-10-03T12:06:28.544Z,26.33
2023-10-03T12:07:32.043Z,26.32
2023-10-03T12:08:40.005Z,26.32
2023-10-03T12:09:53.647Z,26.32
2023-10-03T12:11:07.105Z,26.32
2023-10-03T12:12:11.586Z,26.34
2023-10-03T12:13:16.868Z,26.35
2023-10-03T12:14:20.343Z,26.35
2023-10-03T12:15:25.393Z,26.37
2023-10-03T12:16:29.162Z,26.39
2023-10-03T12:17:32.780Z,26.40
2023-10-03T12:18:37.873Z,26.42
2023-10-03T12:19:40.985Z,26.45
2023-10-03T12:20:45.477Z,26.48
2023-10-03T12:21:49.174Z,26.49
2023-10-03T12:22:56.959Z,26.49
2023-10-03T12:24:01.260Z,26.48
2023-10-03T12:25:07.028Z,26.48
2023-10-03T12:26:25.891Z,26.49
2023-10-03T12:27:31.192Z,26.51
2023-10-03T12:28:34.658Z,26.52
2023-10-03T12:29:38.717Z,26.55
2023-10-03T12:30:41.845Z,26.59
2023-10-03T12:31:45.578Z,26.62
2023-10-03T12:32:51.094Z,26.65
2023-10-03T12:33:55.881Z,26.71
2023-10-03T12:34:58.852Z,26.80
2023-10-03T12:36:03.462Z,26.89
2023-10-03T12:37:12.630Z,26.96
2023-10-03T12:38:18.899Z,27.06
2023-10-03T12:39:26.060Z,27.17
2023-10-03T12:40:31.800Z,27.27
2023-10-03T12:41:35.000Z,27.35
2023-10-03T12:42:38.190Z,27.43
2023-10-03T12:43:47.847Z,27.49
2023-10-03T12:44:52.024Z,27.55
2023-10-03T12:45:55.168Z,27.59
2023-10-03T12:46:59.369Z,27.64
2023-10-03T12:48:02.446Z,27.72
2023-10-03T12:49:05.889Z,27.79
2023-10-03T12:50:09.211Z,27.84
2023-10-03T12:51:13.449Z,27.86
2023-10-03T12:52:16.812Z,27.88
2023-10-03T12:53:20.116Z,27.88
2023-10-03T12:54:25.180Z,27.87
2023-10-03T12:55:30.532Z,27.86
2023-10-03T12:56:33.459Z,27.84
2023-10-03T12:57:38.039Z,27.81
2023-10-03T12:58:41.866Z,27.78
2023-10-03T12:59:45.570Z,27.77
2023-10-03T13:00:50.587Z,27.77
2023-10-03T13:01:53.756Z,27.76
2023-10-03T13:02:58.599Z,27.75
2023-10-03T13:04:03.635Z,27.76
2023-10-03T13:05:07.919Z,27.75
2023-10-03T13:06:11.808Z,27.70
2023-10-03T13:07:18.430Z,27.65
2023-10-03T13:08:21.455Z,27.59
2023-10-03T13:09:26.026Z,27.55
2023-10-03T13:10:29.834Z,27.51
2023-10-03T13:11:33.123Z,27.48
2023-10-03T13:12:36.103Z,27.45
2023-10-03T13:13:40.703Z,27.41
2023-10-03T13:14:43.869Z,27.37
2023-10-03T13:15:48.265Z,27.32
2023-10-03T13:16:55.172Z,27.24
2023-10-03T13:17:58.967Z,27.17
2023-10-03T13:19:02.823Z,27.12
2023-10-03T13:20:09.205Z,27.05
2023-10-03T13:21:13.118Z,26.99
2023-10-03T13:22:16.457Z,26.93
2023-10-03T13:23:21.483Z,26.88
2023-10-03T13:24:26.387Z,26.82
2023-10-03T13:25:29.368Z,26.75
2023-10-03T13:26:32.534Z,26.68
2023-10-03T13:27:37.428Z,26.63
2023-10-03T13:28:40.830Z,26.56
2023-10-03T13:29:44.806Z,26.51
2023-10-03T13:30:47.973Z,26.46
2023-10-03T13:31:54.149Z,26.42
2023-10-03T13:32:59.358Z,26.38
2023-10-03T13:34:03.295Z,26.34
2023-10-03T13:35:09.682Z,26.31
2023-10-03T13:36:14.336Z,26.30
2023-10-03T13:37:17.832Z,26.35
2023-10-03T13:38:20.901Z,26.48
2023-10-03T13:39:28.510Z,26.58
2023-10-03T13:40:31.596Z,26.67
2023-10-03T13:41:35.747Z,26.70
2023-10-03T13:42:39.680Z,26.71
2023-10-03T13:43:42.783Z,26.70
2023-10-03T13:44:49.013Z,26.68
2023-10-03T13:45:52.345Z,26.65
2023-10-03T13:46:55.544Z,26.61
2023-10-03T13:48:00.794Z,26.57
2023-10-03T13:49:04.133Z,26.53
2023-10-03T13:50:10.431Z,26.49
2023-10-03T13:51:16.014Z,26.44
2023-10-03T13:52:19.134Z,26.38
2023-10-03T13:53:22.634Z,26.34
2023-10-03T13:54:26.034Z,26.30
2023-10-03T13:55:30.730Z,26.26
2023-10-03T13:56:36.581Z,26.22
2023-10-03T13:57:43.550Z,26.18
2023-10-03T13:58:46.965Z,26.14
2023-10-03T13:59:50.080Z,26.12
2023-10-03T14:00:52.955Z,26.09
2023-10-03T14:01:55.814Z,26.06
2023-10-03T14:03:07.114Z,26.06
2023-10-03T14:04:10.584Z,26.04
2023-10-03T14:05:14.151Z,26.02
2023-10-03T14:06:21.005Z,26.02
2023-10-03T14:07:24.199Z,26.02
2023-10-03T14:08:27.133Z,26.01
2023-10-03T14:09:30.616Z,26.03
2023-10-03T14:10:34.029Z,26.05
2023-10-03T14:11:38.114Z,26.09
2023-10-03T14:12:42.274Z,26.13
2023-10-03T14:13:45.502Z,26.16
2023-10-03T14:14:49.309Z,26.20
2023-10-03T14:15:52.540Z,26.24
2023-10-03T14:17:01.320Z,26.28
2023-10-03T14:18:04.797Z,26.31
2023-10-03T14:19:07.654Z,26.34
2023-10-03T14:20:13.808Z,26.35
2023-10-03T14:21:18.020Z,26.39
2023-10-03T14:22:23.217Z,26.41
2023-10-03T14:23:26.134Z,26.43
2023-10-03T14:24:29.019Z,26.45
2023-10-03T14:25:33.568Z,26.47
2023-10-03T14:26:36.760Z,26.49
2023-10-03T14:27:40.667Z,26.51
2023-10-03T14:28:43.681Z,26.52
2023-10-03T14:29:47.439Z,26.53
2023-10-03T14:30:52.259Z,26.54
2023-10-03T14:31:55.429Z,26.53
2023-10-03T14:32:58.434Z,26.52
2023-10-03T14:34:02.283Z,26.51
2023-10-03T14:35:08.922Z,26.50
2023-10-03T14:36:16.319Z,26.47
2023-10-03T14:37:19.506Z,26.43
2023-10-03T14:38:22.444Z,26.37
2023-10-03T14:39:26.327Z,26.32
2023-10-03T14:40:29.468Z,26.27
2023-10-03T14:41:32.609Z,26.22